createdAt,value
2018-12-10T00:00:03.123Z,5.2
2018-12-10T00:15:02.471Z,5.2
2018-12-10T00:30:02.938Z,5.2
2018-12-10T00:45:03.278Z,5.3
2018-12-10T01:00:02.887Z,5.3
2018-12-10T01:15:03.302Z,5.3
2018-12-10T01:30:02.906Z,5.3
2018-12-10T01:45:03.443Z,5.3
2018-12-10T02:00:02.967Z,5.1
2018-12-10T02:15:03.298Z,4.4
2018-12-10T02:30:02.648Z,4.3
2018-12-10T02:45:03.194Z,4.8
2018-12-10T03:00:02.574Z,4.8
2018-12-10T03:15:02.822Z,4.6
2018-12-10T03:30:03.330Z,4.6
2018-12-10T03:45:02.807Z,4.4
2018-12-10T04:00:03.033Z,4.5
2018-12-10T04:15:03.299Z,4.5
2018-12-10T04:30:02.659Z,4.6
2018-12-10T04:45:02.920Z,4.6
2018-12-10T05:00:02.546Z,4.4
2018-12-10T05:15:02.929Z,4.2
2018-12-10T05:30:03.358Z,4.1
2018-12-10T05:45:02.894Z,3.9
2018-12-10T06:00:03.384Z,3.8
2018-12-10T06:15:02.889Z,3.7
2018-12-10T06:30:02.681Z,3.6
2018-12-10T06:45:03.211Z,3.6
2018-12-10T07:00:02.529Z,3.5
2018-12-10T07:15:02.994Z,3.3
2018-12-10T07:30:02.831Z,3
2018-12-10T07:45:03.364Z,2.8
2018-12-10T08:00:02.959Z,2.4
2018-12-10T08:15:03.357Z,2.4
2018-12-10T08:30:03.056Z,2.6
2018-12-10T08:45:03.302Z,2.7
2018-12-10T09:00:02.651Z,2.8
2018-12-10T09:15:02.908Z,3.2
2018-12-10T09:30:03.280Z,3.3
2018-12-10T09:45:02.657Z,3.4
2018-12-10T10:00:03.128Z,3.8
2018-12-10T10:15:02.656Z,3.8
2018-12-10T10:30:03.052Z,3.9
2018-12-10T10:45:03.372Z,4
2018-12-10T11:00:02.667Z,4
2018-12-10T11:15:02.955Z,3.9
2018-12-10T11:30:02.577Z,3.6
2018-12-10T11:45:03.084Z,3.8
2018-12-10T12:00:03.300Z,3.9
2018-12-10T12:15:02.575Z,4.1
2018-12-10T12:30:02.967Z,4.2
2018-12-10T12:45:03.289Z,3.5
2018-12-10T13:00:02.653Z,3.2
2018-12-10T13:15:02.904Z,3.9
2018-12-10T13:30:03.224Z,3.9
2018-12-10T13:45:02.451Z,3.4
2018-12-10T14:00:02.801Z,3.5
2018-12-10T14:15:03.290Z,3.4
2018-12-10T14:30:02.609Z,3.6
2018-12-10T14:45:02.903Z,3.8
2018-12-10T15:00:02.473Z,3.7
2018-12-10T15:15:02.984Z,3.5
2018-12-10T15:30:02.475Z,3.5
2018-12-10T15:45:02.727Z,3.5
2018-12-10T16:00:03.140Z,3.1
2018-12-10T16:15:03.257Z,3.1
2018-12-10T16:30:02.606Z,3.1
2018-12-10T16:45:02.956Z,3.1
2018-12-10T17:00:03.287Z,3
2018-12-10T17:15:02.814Z,3
2018-12-10T17:30:03.299Z,3
2018-12-10T17:45:02.564Z,2.9
2018-12-10T18:00:02.886Z,2.8
2018-12-10T18:15:03.210Z,2.8
2018-12-10T18:30:02.694Z,2.8
2018-12-10T18:45:03.106Z,2.8
2018-12-10T19:00:03.295Z,2.6
2018-12-10T19:15:02.682Z,2.6
2018-12-10T19:30:03.137Z,2.8
2018-12-10T19:45:02.492Z,2.9
2018-12-10T20:00:02.794Z,2.8
2018-12-10T20:15:03.125Z,2.8
2018-12-10T20:30:02.777Z,2.9
2018-12-10T20:45:03.061Z,2.8
2018-12-10T21:00:03.290Z,2.5
2018-12-10T21:15:02.585Z,2.5
2018-12-10T21:30:02.957Z,2.6
2018-12-10T21:45:03.284Z,2.6
2018-12-10T22:00:02.555Z,2.5
2018-12-10T22:15:02.887Z,2.6
2018-12-10T22:30:03.289Z,2.5
2018-12-10T22:45:02.569Z,2.5
2018-12-10T23:00:02.899Z,2.4
2018-12-10T23:15:03.083Z,2.4
2018-12-10T23:30:02.539Z,2.3
2018-12-10T23:45:02.972Z,2.4
